sensor_id;sensor_type;location;lat;lon;timestamp;pressure;altitude;pressure_sealevel;temperature;humidity
13661;BME280;6903;49.480;11.102;2023-07-31T00:00:06;97866.31;;;16.21;100.00
13661;BME280;6903;49.480;11.102;2023-07-31T00:02:31;97855.66;;;16.21;100.00
13661;BME280;6903;49.480;11.102;2023-07-31T00:04:56;97861.00;;;16.21;100.00
13661;BME280;6903;49.480;11.102;2023-07-31T00:07:22;97853.50;;;16.16;100.00
13661;BME280;6903;49.480;11.102;2023-07-31T00:09:47;97852.81;;;16.14;100.00
13661;BME280;6903;49.480;11.102;2023-07-31T00:12:12;97857.47;;;16.12;100.00
13661;BME280;6903;49.480;11.102;2023-07-31T00:14:38;97846.31;;;16.09;100.00
13661;BME280;6903;49.480;11.102;2023-07-31T00:17:03;97849.94;;;16.08;100.00
13661;BME280;6903;49.480;11.102;2023-07-31T00:19:29;97839.63;;;16.05;100.00
13661;BME280;6903;49.480;11.102;2023-07-31T00:21:54;97839.78;;;16.03;100.00
13661;BME280;6903;49.480;11.102;2023-07-31T00:24:19;97835.63;;;16.01;100.00
13661;BME280;6903;49.480;11.102;2023-07-31T00:26:45;97833.94;;;16.00;100.00
13661;BME280;6903;49.480;11.102;2023-07-31T00:29:10;97833.78;;;16.01;100.00
13661;BME280;6903;49.480;11.102;2023-07-31T00:31:35;97840.94;;;16.01;100.00
13661;BME280;6903;49.480;11.102;2023-07-31T00:34:00;97837.59;;;15.99;100.00
13661;BME280;6903;49.480;11.102;2023-07-31T00:36:26;97837.59;;;15.99;100.00
13661;BME280;6903;49.480;11.102;2023-07-31T00:38:51;97832.13;;;16.00;100.00
13661;BME280;6903;49.480;11.102;2023-07-31T00:41:16;97840.78;;;16.02;100.00
13661;BME280;6903;49.480;11.102;2023-07-31T00:43:42;97840.47;;;16.05;100.00
13661;BME280;6903;49.480;11.102;2023-07-31T00:46:07;97835.66;;;16.09;100.00
13661;BME280;6903;49.480;11.102;2023-07-31T00:48:33;97835.66;;;16.09;100.00
13661;BME280;6903;49.480;11.102;2023-07-31T00:50:59;97839.31;;;16.08;100.00
13661;BME280;6903;49.480;11.102;2023-07-31T00:53:26;97835.84;;;16.07;100.00
13661;BME280;6903;49.480;11.102;2023-07-31T00:55:52;97838.34;;;16.09;100.00
13661;BME280;6903;49.480;11.102;2023-07-31T00:58:18;97836.19;;;16.12;100.00
13661;BME280;6903;49.480;11.102;2023-07-31T01:00:43;97832.88;;;16.18;100.00
13661;BME280;6903;49.480;11.102;2023-07-31T01:03:09;97842.03;;;16.24;100.00
13661;BME280;6903;49.480;11.102;2023-07-31T01:08:29;97832.63;;;16.37;100.00
13661;BME280;6903;49.480;11.102;2023-07-31T01:11:04;97834.50;;;16.45;100.00
13661;BME280;6903;49.480;11.102;2023-07-31T01:13:32;97836.56;;;16.51;100.00
13661;BME280;6903;49.480;11.102;2023-07-31T01:15:57;97823.56;;;16.56;100.00
13661;BME280;6903;49.480;11.102;2023-07-31T01:18:23;97832.75;;;16.61;100.00
13661;BME280;6903;49.480;11.102;2023-07-31T01:21:03;97823.59;;;16.64;100.00
13661;BME280;6903;49.480;11.102;2023-07-31T01:26:23;97816.47;;;16.72;100.00
13661;BME280;6903;49.480;11.102;2023-07-31T01:29:03;97820.47;;;16.76;100.00
13661;BME280;6903;49.480;11.102;2023-07-31T01:31:32;97823.66;;;16.80;100.00
13661;BME280;6903;49.480;11.102;2023-07-31T01:34:00;97820.66;;;16.83;100.00
13661;BME280;6903;49.480;11.102;2023-07-31T01:36:26;97819.47;;;16.85;100.00
13661;BME280;6903;49.480;11.102;2023-07-31T01:38:51;97821.00;;;16.88;100.00
13661;BME280;6903;49.480;11.102;2023-07-31T01:41:17;97823.34;;;16.91;100.00
13661;BME280;6903;49.480;11.102;2023-07-31T01:43:44;97814.16;;;16.93;100.00
13661;BME280;6903;49.480;11.102;2023-07-31T01:46:09;97812.19;;;16.95;100.00
13661;BME280;6903;49.480;11.102;2023-07-31T01:48:34;97819.00;;;16.98;100.00
13661;BME280;6903;49.480;11.102;2023-07-31T01:51:02;97811.69;;;17.00;100.00
13661;BME280;6903;49.480;11.102;2023-07-31T01:53:28;97810.53;;;17.03;100.00
13661;BME280;6903;49.480;11.102;2023-07-31T01:55:53;97813.03;;;17.04;100.00
13661;BME280;6903;49.480;11.102;2023-07-31T01:58:18;97806.84;;;17.04;100.00
13661;BME280;6903;49.480;11.102;2023-07-31T02:00:43;97801.38;;;17.05;100.00
13661;BME280;6903;49.480;11.102;2023-07-31T02:03:09;97803.19;;;17.05;100.00
13661;BME280;6903;49.480;11.102;2023-07-31T02:05:34;97792.53;;;17.05;100.00
13661;BME280;6903;49.480;11.102;2023-07-31T02:07:59;97799.53;;;17.06;100.00
13661;BME280;6903;49.480;11.102;2023-07-31T02:10:25;97789.69;;;17.06;100.00
13661;BME280;6903;49.480;11.102;2023-07-31T02:12:50;97783.56;;;17.06;100.00
13661;BME280;6903;49.480;11.102;2023-07-31T02:15:15;97775.41;;;17.07;100.00
13661;BME280;6903;49.480;11.102;2023-07-31T02:17:41;97772.72;;;17.07;100.00
13661;BME280;6903;49.480;11.102;2023-07-31T02:20:06;97771.38;;;17.11;100.00
13661;BME280;6903;49.480;11.102;2023-07-31T02:22:32;97767.75;;;17.12;100.00
13661;BME280;6903;49.480;11.102;2023-07-31T02:24:57;97772.22;;;17.12;100.00
13661;BME280;6903;49.480;11.102;2023-07-31T02:27:22;97772.22;;;17.12;100.00
13661;BME280;6903;49.480;11.102;2023-07-31T02:29:52;97764.56;;;17.09;100.00
13661;BME280;6903;49.480;11.102;2023-07-31T02:32:17;97774.88;;;17.04;100.00
13661;BME280;6903;49.480;11.102;2023-07-31T02:34:42;97778.06;;;16.99;100.00
13661;BME280;6903;49.480;11.102;2023-07-31T02:37:08;97770.41;;;16.96;100.00
13661;BME280;6903;49.480;11.102;2023-07-31T02:39:33;97774.22;;;16.93;100.00
13661;BME280;6903;49.480;11.102;2023-07-31T02:41:59;97773.72;;;16.90;100.00
13661;BME280;6903;49.480;11.102;2023-07-31T02:44:25;97774.88;;;16.87;100.00
13661;BME280;6903;49.480;11.102;2023-07-31T02:46:51;97769.72;;;16.86;100.00
13661;BME280;6903;49.480;11.102;2023-07-31T02:49:16;97774.03;;;16.87;100.00
13661;BME280;6903;49.480;11.102;2023-07-31T02:51:41;97773.69;;;16.82;100.00
13661;BME280;6903;49.480;11.102;2023-07-31T02:54:07;97769.38;;;16.81;100.00
13661;BME280;6903;49.480;11.102;2023-07-31T02:56:32;97776.34;;;16.74;100.00
13661;BME280;6903;49.480;11.102;2023-07-31T02:58:57;97770.03;;;16.67;100.00
13661;BME280;6903;49.480;11.102;2023-07-31T03:01:23;97778.81;;;16.59;100.00
13661;BME280;6903;49.480;11.102;2023-07-31T03:03:48;97775.66;;;16.56;100.00
13661;BME280;6903;49.480;11.102;2023-07-31T03:06:13;97769.50;;;16.47;100.00
13661;BME280;6903;49.480;11.102;2023-07-31T03:08:38;97761.28;;;16.41;100.00
13661;BME280;6903;49.480;11.102;2023-07-31T03:11:04;97764.44;;;16.36;100.00
13661;BME280;6903;49.480;11.102;2023-07-31T03:13:29;97762.41;;;16.30;100.00
13661;BME280;6903;49.480;11.102;2023-07-31T03:15:54;97755.75;;;16.26;100.00
13661;BME280;6903;49.480;11.102;2023-07-31T03:18:20;97763.75;;;16.26;100.00
13661;BME280;6903;49.480;11.102;2023-07-31T03:20:45;97760.06;;;16.27;100.00
13661;BME280;6903;49.480;11.102;2023-07-31T03:23:10;97768.91;;;16.28;100.00
13661;BME280;6903;49.480;11.102;2023-07-31T03:25:37;97767.72;;;16.30;100.00
13661;BME280;6903;49.480;11.102;2023-07-31T03:28:02;97759.75;;;16.30;100.00
13661;BME280;6903;49.480;11.102;2023-07-31T03:30:27;97762.56;;;16.29;100.00
13661;BME280;6903;49.480;11.102;2023-07-31T03:32:53;97768.91;;;16.28;100.00
13661;BME280;6903;49.480;11.102;2023-07-31T03:35:18;97761.59;;;16.30;100.00
13661;BME280;6903;49.480;11.102;2023-07-31T03:37:43;97764.25;;;16.30;100.00
13661;BME280;6903;49.480;11.102;2023-07-31T03:40:09;97761.94;;;16.27;100.00
13661;BME280;6903;49.480;11.102;2023-07-31T03:42:35;97767.09;;;16.28;100.00
13661;BME280;6903;49.480;11.102;2023-07-31T03:45:00;97758.75;;;16.23;100.00
13661;BME280;6903;49.480;11.102;2023-07-31T03:47:26;97761.75;;;16.20;100.00
13661;BME280;6903;49.480;11.102;2023-07-31T03:49:51;97768.88;;;16.20;100.00
13661;BME280;6903;49.480;11.102;2023-07-31T03:52:16;97758.41;;;16.18;100.00
13661;BME280;6903;49.480;11.102;2023-07-31T03:54:42;97762.88;;;16.18;100.00
13661;BME280;6903;49.480;11.102;2023-07-31T03:57:09;97762.19;;;16.16;100.00
13661;BME280;6903;49.480;11.102;2023-07-31T03:59:35;97770.50;;;16.13;100.00
13661;BME280;6903;49.480;11.102;2023-07-31T04:02:00;97772.03;;;16.15;100.00
13661;BME280;6903;49.480;11.102;2023-07-31T04:04:25;97772.53;;;16.19;100.00
13661;BME280;6903;49.480;11.102;2023-07-31T04:06:51;97771.69;;;16.18;100.00
13661;BME280;6903;49.480;11.102;2023-07-31T04:09:17;97775.22;;;16.19;100.00
13661;BME280;6903;49.480;11.102;2023-07-31T04:11:42;97766.06;;;16.21;100.00
13661;BME280;6903;49.480;11.102;2023-07-31T04:14:08;97764.88;;;16.24;100.00
13661;BME280;6903;49.480;11.102;2023-07-31T04:16:34;97767.38;;;16.25;100.00
13661;BME280;6903;49.480;11.102;2023-07-31T04:18:59;97760.25;;;16.26;100.00
13661;BME280;6903;49.480;11.102;2023-07-31T04:21:25;97757.94;;;16.31;100.00
13661;BME280;6903;49.480;11.102;2023-07-31T04:23:50;97757.09;;;16.30;100.00
13661;BME280;6903;49.480;11.102;2023-07-31T04:26:15;97764.63;;;16.35;100.00
13661;BME280;6903;49.480;11.102;2023-07-31T04:28:41;97759.59;;;16.40;100.00
13661;BME280;6903;49.480;11.102;2023-07-31T04:31:06;97761.13;;;16.42;100.00
13661;BME280;6903;49.480;11.102;2023-07-31T04:33:31;97757.47;;;16.43;100.00
13661;BME280;6903;49.480;11.102;2023-07-31T04:35:59;97759.31;;;16.43;100.00
13661;BME280;6903;49.480;11.102;2023-07-31T04:38:24;97761.69;;;16.46;100.00
13661;BME280;6903;49.480;11.102;2023-07-31T04:40:49;97764.00;;;16.49;100.00
13661;BME280;6903;49.480;11.102;2023-07-31T04:43:15;97756.38;;;16.54;100.00
13661;BME280;6903;49.480;11.102;2023-07-31T04:45:44;97757.69;;;16.58;100.00
13661;BME280;6903;49.480;11.102;2023-07-31T04:48:11;97755.88;;;16.66;100.00
13661;BME280;6903;49.480;11.102;2023-07-31T04:50:36;97751.88;;;16.70;100.00
13661;BME280;6903;49.480;11.102;2023-07-31T04:53:01;97750.91;;;16.79;100.00
13661;BME280;6903;49.480;11.102;2023-07-31T04:55:27;97750.41;;;16.92;100.00
13661;BME280;6903;49.480;11.102;2023-07-31T04:57:52;97744.56;;;17.05;100.00
13661;BME280;6903;49.480;11.102;2023-07-31T05:00:18;97738.25;;;17.14;100.00
13661;BME280;6903;49.480;11.102;2023-07-31T05:02:43;97732.75;;;17.23;100.00
13661;BME280;6903;49.480;11.102;2023-07-31T05:05:08;97734.56;;;17.31;100.00
13661;BME280;6903;49.480;11.102;2023-07-31T05:07:34;97724.06;;;17.37;100.00
13661;BME280;6903;49.480;11.102;2023-07-31T05:09:59;97724.38;;;17.42;100.00
13661;BME280;6903;49.480;11.102;2023-07-31T05:12:24;97719.72;;;17.44;100.00
13661;BME280;6903;49.480;11.102;2023-07-31T05:14:49;97717.91;;;17.45;100.00
13661;BME280;6903;49.480;11.102;2023-07-31T05:17:15;97730.09;;;17.47;100.00
13661;BME280;6903;49.480;11.102;2023-07-31T05:19:40;97742.91;;;17.52;100.00
13661;BME280;6903;49.480;11.102;2023-07-31T05:22:05;97747.03;;;17.54;100.00
13661;BME280;6903;49.480;11.102;2023-07-31T05:24:31;97735.53;;;17.62;100.00
13661;BME280;6903;49.480;11.102;2023-07-31T05:26:56;97736.31;;;17.70;100.00
13661;BME280;6903;49.480;11.102;2023-07-31T05:29:21;97733.34;;;17.73;100.00
13661;BME280;6903;49.480;11.102;2023-07-31T05:31:47;97728.97;;;17.80;100.00
13661;BME280;6903;49.480;11.102;2023-07-31T05:34:12;97745.78;;;17.89;100.00
13661;BME280;6903;49.480;11.102;2023-07-31T05:36:37;97742.91;;;17.98;100.00
13661;BME280;6903;49.480;11.102;2023-07-31T05:39:02;97750.38;;;18.03;100.00
13661;BME280;6903;49.480;11.102;2023-07-31T05:41:32;97746.03;;;18.10;100.00
13661;BME280;6903;49.480;11.102;2023-07-31T05:43:57;97746.34;;;18.15;100.00
13661;BME280;6903;49.480;11.102;2023-07-31T05:46:22;97751.81;;;18.21;100.00
13661;BME280;6903;49.480;11.102;2023-07-31T05:48:48;97744.94;;;18.27;100.00
13661;BME280;6903;49.480;11.102;2023-07-31T05:51:13;97758.59;;;18.32;100.00
13661;BME280;6903;49.480;11.102;2023-07-31T05:53:38;97750.91;;;18.37;100.00
13661;BME280;6903;49.480;11.102;2023-07-31T05:56:05;97746.41;;;18.38;100.00
13661;BME280;6903;49.480;11.102;2023-07-31T05:58:31;97749.69;;;18.48;100.00
13661;BME280;6903;49.480;11.102;2023-07-31T06:00:56;97745.81;;;18.58;100.00
13661;BME280;6903;49.480;11.102;2023-07-31T06:03:21;97731.19;;;18.69;100.00
13661;BME280;6903;49.480;11.102;2023-07-31T06:05:47;97737.81;;;18.81;100.00
13661;BME280;6903;49.480;11.102;2023-07-31T06:08:12;97732.41;;;18.89;100.00
13661;BME280;6903;49.480;11.102;2023-07-31T06:10:37;97724.03;;;18.92;100.00
13661;BME280;6903;49.480;11.102;2023-07-31T06:13:03;97719.81;;;18.97;100.00
13661;BME280;6903;49.480;11.102;2023-07-31T06:15:29;97715.56;;;19.03;100.00
13661;BME280;6903;49.480;11.102;2023-07-31T06:17:54;97726.38;;;19.09;100.00
13661;BME280;6903;49.480;11.102;2023-07-31T06:20:19;97730.72;;;19.25;100.00
13661;BME280;6903;49.480;11.102;2023-07-31T06:22:45;97738.38;;;19.36;100.00
13661;BME280;6903;49.480;11.102;2023-07-31T06:25:10;97734.03;;;19.49;100.00
13661;BME280;6903;49.480;11.102;2023-07-31T06:27:35;97730.72;;;19.62;100.00
13661;BME280;6903;49.480;11.102;2023-07-31T06:30:01;97742.28;;;19.77;100.00
13661;BME280;6903;49.480;11.102;2023-07-31T06:32:26;97742.94;;;19.94;100.00
13661;BME280;6903;49.480;11.102;2023-07-31T06:34:51;97741.53;;;20.12;100.00
13661;BME280;6903;49.480;11.102;2023-07-31T06:37:17;97740.53;;;20.28;100.00
13661;BME280;6903;49.480;11.102;2023-07-31T06:39:42;97744.75;;;20.37;100.00
13661;BME280;6903;49.480;11.102;2023-07-31T06:42:07;97744.63;;;20.45;100.00
13661;BME280;6903;49.480;11.102;2023-07-31T06:44:33;97748.22;;;20.52;100.00
13661;BME280;6903;49.480;11.102;2023-07-31T06:46:58;97734.78;;;20.66;100.00
13661;BME280;6903;49.480;11.102;2023-07-31T06:49:23;97736.78;;;20.79;100.00
13661;BME280;6903;49.480;11.102;2023-07-31T06:51:49;97732.28;;;20.86;100.00
13661;BME280;6903;49.480;11.102;2023-07-31T06:54:14;97733.38;;;20.91;100.00
13661;BME280;6903;49.480;11.102;2023-07-31T06:56:39;97725.63;;;20.96;100.00
13661;BME280;6903;49.480;11.102;2023-07-31T06:59:05;97723.53;;;21.13;100.00
13661;BME280;6903;49.480;11.102;2023-07-31T07:01:30;97727.53;;;21.24;100.00
13661;BME280;6903;49.480;11.102;2023-07-31T07:03:55;97733.00;;;21.37;100.00
13661;BME280;6903;49.480;11.102;2023-07-31T07:06:21;97727.53;;;21.51;100.00
13661;BME280;6903;49.480;11.102;2023-07-31T07:08:47;97740.94;;;21.51;100.00
13661;BME280;6903;49.480;11.102;2023-07-31T07:11:13;97744.88;;;21.49;100.00
13661;BME280;6903;49.480;11.102;2023-07-31T07:13:38;97739.09;;;21.52;100.00
13661;BME280;6903;49.480;11.102;2023-07-31T07:16:03;97735.81;;;21.56;100.00
13661;BME280;6903;49.480;11.102;2023-07-31T07:18:29;97734.19;;;21.55;100.00
13661;BME280;6903;49.480;11.102;2023-07-31T07:20:54;97739.75;;;21.60;100.00
13661;BME280;6903;49.480;11.102;2023-07-31T07:23:20;97747.44;;;21.63;100.00
13661;BME280;6903;49.480;11.102;2023-07-31T07:25:46;97733.34;;;21.82;100.00
13661;BME280;6903;49.480;11.102;2023-07-31T07:28:13;97736.56;;;22.05;100.00
13661;BME280;6903;49.480;11.102;2023-07-31T07:30:38;97732.75;;;22.27;100.00
13661;BME280;6903;49.480;11.102;2023-07-31T07:33:03;97743.75;;;22.45;100.00
13661;BME280;6903;49.480;11.102;2023-07-31T07:35:29;97743.63;;;22.54;100.00
13661;BME280;6903;49.480;11.102;2023-07-31T07:37:55;97749.19;;;22.52;100.00
13661;BME280;6903;49.480;11.102;2023-07-31T07:40:21;97746.72;;;22.57;100.00
13661;BME280;6903;49.480;11.102;2023-07-31T07:42:46;97757.91;;;22.61;100.00
13661;BME280;6903;49.480;11.102;2023-07-31T07:45:12;97751.91;;;22.59;100.00
13661;BME280;6903;49.480;11.102;2023-07-31T07:47:38;97748.19;;;22.53;100.00
13661;BME280;6903;49.480;11.102;2023-07-31T07:50:04;97754.31;;;22.47;100.00
13661;BME280;6903;49.480;11.102;2023-07-31T07:52:30;97756.00;;;22.48;100.00
13661;BME280;6903;49.480;11.102;2023-07-31T07:54:55;97740.69;;;22.49;100.00
13661;BME280;6903;49.480;11.102;2023-07-31T07:57:20;97749.38;;;22.51;100.00
13661;BME280;6903;49.480;11.102;2023-07-31T07:59:46;97742.56;;;22.48;100.00
13661;BME280;6903;49.480;11.102;2023-07-31T08:02:11;97740.94;;;22.54;100.00
13661;BME280;6903;49.480;11.102;2023-07-31T08:04:36;97739.75;;;22.69;100.00
13661;BME280;6903;49.480;11.102;2023-07-31T08:07:02;97730.91;;;22.88;100.00
13661;BME280;6903;49.480;11.102;2023-07-31T08:09:27;97724.50;;;23.15;100.00
13661;BME280;6903;49.480;11.102;2023-07-31T08:11:52;97732.22;;;23.31;100.00
13661;BME280;6903;49.480;11.102;2023-07-31T08:14:18;97725.78;;;23.52;100.00
13661;BME280;6903;49.480;11.102;2023-07-31T08:16:43;97730.50;;;23.69;100.00
13661;BME280;6903;49.480;11.102;2023-07-31T08:19:09;97733.16;;;23.89;98.87
13661;BME280;6903;49.480;11.102;2023-07-31T08:21:34;97730.03;;;24.12;96.92
13661;BME280;6903;49.480;11.102;2023-07-31T08:23:59;97738.84;;;24.45;94.13
13661;BME280;6903;49.480;11.102;2023-07-31T08:26:25;97733.50;;;24.76;92.99
13661;BME280;6903;49.480;11.102;2023-07-31T08:28:50;97733.13;;;25.03;92.24
13661;BME280;6903;49.480;11.102;2023-07-31T08:31:15;97718.84;;;25.03;89.46
13661;BME280;6903;49.480;11.102;2023-07-31T08:33:41;97715.25;;;25.09;87.57
13661;BME280;6903;49.480;11.102;2023-07-31T08:36:06;97704.97;;;25.24;89.13
13661;BME280;6903;49.480;11.102;2023-07-31T08:38:31;97690.38;;;25.74;87.79
13661;BME280;6903;49.480;11.102;2023-07-31T08:40:57;97688.81;;;26.09;83.43
13661;BME280;6903;49.480;11.102;2023-07-31T08:43:25;97693.38;;;26.27;82.19
13661;BME280;6903;49.480;11.102;2023-07-31T08:45:51;97694.00;;;26.40;80.06
13661;BME280;6903;49.480;11.102;2023-07-31T08:48:17;97686.56;;;26.54;78.10
13661;BME280;6903;49.480;11.102;2023-07-31T08:50:43;97691.81;;;26.67;78.73
13661;BME280;6903;49.480;11.102;2023-07-31T08:53:08;97676.22;;;26.81;76.78
13661;BME280;6903;49.480;11.102;2023-07-31T08:55:35;97672.41;;;27.00;76.58
13661;BME280;6903;49.480;11.102;2023-07-31T08:58:02;97674.44;;;27.27;74.89
13661;BME280;6903;49.480;11.102;2023-07-31T09:00:28;97677.53;;;27.31;74.69
13661;BME280;6903;49.480;11.102;2023-07-31T09:02:59;97673.50;;;27.22;72.64
13661;BME280;6903;49.480;11.102;2023-07-31T09:05:29;97669.78;;;27.46;71.39
13661;BME280;6903;49.480;11.102;2023-07-31T09:07:56;97668.59;;;27.76;70.22
13661;BME280;6903;49.480;11.102;2023-07-31T09:10:22;97674.47;;;27.97;69.10
13661;BME280;6903;49.480;11.102;2023-07-31T09:12:49;97676.91;;;28.21;68.74
13661;BME280;6903;49.480;11.102;2023-07-31T09:15:16;97675.22;;;28.71;66.69
13661;BME280;6903;49.480;11.102;2023-07-31T09:17:41;97660.94;;;28.92;64.94
13661;BME280;6903;49.480;11.102;2023-07-31T09:20:13;97672.19;;;29.29;65.92
13661;BME280;6903;49.480;11.102;2023-07-31T09:22:39;97664.03;;;29.46;61.34
13661;BME280;6903;49.480;11.102;2023-07-31T09:30:21;97665.78;;;30.76;54.77
13661;BME280;6903;49.480;11.102;2023-07-31T09:32:48;97658.88;;;30.64;52.95
13661;BME280;6903;49.480;11.102;2023-07-31T09:35:22;97662.13;;;30.39;52.92
13661;BME280;6903;49.480;11.102;2023-07-31T09:37:52;97664.47;;;30.30;52.78
13661;BME280;6903;49.480;11.102;2023-07-31T09:40:35;97661.84;;;30.40;53.72
13661;BME280;6903;49.480;11.102;2023-07-31T09:43:02;97662.91;;;30.61;52.61
13661;BME280;6903;49.480;11.102;2023-07-31T09:45:28;97661.66;;;30.69;51.66
13661;BME280;6903;49.480;11.102;2023-07-31T09:47:55;97659.91;;;30.84;52.56
13661;BME280;6903;49.480;11.102;2023-07-31T09:50:23;97659.59;;;30.81;52.13
13661;BME280;6903;49.480;11.102;2023-07-31T09:52:49;97647.56;;;31.03;53.29
13661;BME280;6903;49.480;11.102;2023-07-31T09:55:14;97634.66;;;31.25;52.21
13661;BME280;6903;49.480;11.102;2023-07-31T09:57:41;97636.03;;;31.23;51.11
13661;BME280;6903;49.480;11.102;2023-07-31T10:00:08;97632.78;;;31.26;49.32
13661;BME280;6903;49.480;11.102;2023-07-31T10:02:37;97626.19;;;31.17;49.98
13661;BME280;6903;49.480;11.102;2023-07-31T10:05:04;97633.44;;;31.06;49.45
13661;BME280;6903;49.480;11.102;2023-07-31T10:07:31;97624.16;;;31.34;49.25
13661;BME280;6903;49.480;11.102;2023-07-31T10:09:59;97624.56;;;31.52;49.15
13661;BME280;6903;49.480;11.102;2023-07-31T10:12:27;97630.56;;;31.54;49.09
13661;BME280;6903;49.480;11.102;2023-07-31T10:14:54;97622.59;;;31.48;48.70
13661;BME280;6903;49.480;11.102;2023-07-31T10:17:21;97618.31;;;31.57;49.10
13661;BME280;6903;49.480;11.102;2023-07-31T10:19:48;97615.03;;;31.55;48.95
13661;BME280;6903;49.480;11.102;2023-07-31T10:22:14;97607.41;;;31.57;49.20
13661;BME280;6903;49.480;11.102;2023-07-31T10:24:42;97616.44;;;31.26;48.79
13661;BME280;6903;49.480;11.102;2023-07-31T10:27:08;97602.88;;;31.31;48.47
13661;BME280;6903;49.480;11.102;2023-07-31T10:29:35;97604.03;;;31.08;48.57
13661;BME280;6903;49.480;11.102;2023-07-31T10:32:01;97589.84;;;31.06;49.76
13661;BME280;6903;49.480;11.102;2023-07-31T10:34:27;97590.72;;;31.12;49.91
13661;BME280;6903;49.480;11.102;2023-07-31T10:40:07;97589.97;;;31.21;49.11
13661;BME280;6903;49.480;11.102;2023-07-31T10:42:36;97591.00;;;30.84;48.90
13661;BME280;6903;49.480;11.102;2023-07-31T10:45:06;97579.34;;;30.62;49.40
13661;BME280;6903;49.480;11.102;2023-07-31T10:47:37;97580.44;;;30.61;49.04
13661;BME280;6903;49.480;11.102;2023-07-31T10:50:18;97568.41;;;30.57;48.88
13661;BME280;6903;49.480;11.102;2023-07-31T10:52:54;97559.16;;;30.58;48.73
13661;BME280;6903;49.480;11.102;2023-07-31T10:57:48;97559.63;;;30.50;48.81
13661;BME280;6903;49.480;11.102;2023-07-31T11:00:29;97556.84;;;30.71;48.55
13661;BME280;6903;49.480;11.102;2023-07-31T11:03:05;97559.16;;;30.84;48.38
13661;BME280;6903;49.480;11.102;2023-07-31T11:06:03;97564.81;;;30.78;47.40
13661;BME280;6903;49.480;11.102;2023-07-31T11:08:33;97563.59;;;30.37;47.27
13661;BME280;6903;49.480;11.102;2023-07-31T11:13:31;97556.13;;;30.81;48.98
13661;BME280;6903;49.480;11.102;2023-07-31T11:15:57;97551.31;;;30.88;48.81
13661;BME280;6903;49.480;11.102;2023-07-31T11:18:23;97548.22;;;30.79;48.86
13661;BME280;6903;49.480;11.102;2023-07-31T11:20:48;97553.38;;;30.49;48.39
13661;BME280;6903;49.480;11.102;2023-07-31T11:23:16;97547.06;;;30.43;49.45
13661;BME280;6903;49.480;11.102;2023-07-31T11:25:42;97536.06;;;30.33;48.50
13661;BME280;6903;49.480;11.102;2023-07-31T11:28:12;97536.53;;;30.25;47.83
13661;BME280;6903;49.480;11.102;2023-07-31T11:30:39;97542.06;;;30.14;48.75
13661;BME280;6903;49.480;11.102;2023-07-31T11:33:06;97538.19;;;29.83;49.57
13661;BME280;6903;49.480;11.102;2023-07-31T11:35:43;97536.22;;;29.57;49.23
13661;BME280;6903;49.480;11.102;2023-07-31T11:38:11;97542.41;;;29.15;50.16
13661;BME280;6903;49.480;11.102;2023-07-31T11:40:43;97544.28;;;28.64;50.99
13661;BME280;6903;49.480;11.102;2023-07-31T11:43:09;97551.19;;;28.27;52.73
13661;BME280;6903;49.480;11.102;2023-07-31T11:45:34;97547.97;;;28.14;53.15
13661;BME280;6903;49.480;11.102;2023-07-31T11:48:03;97543.31;;;27.86;52.62
13661;BME280;6903;49.480;11.102;2023-07-31T11:50:28;97536.53;;;27.72;53.05
13661;BME280;6903;49.480;11.102;2023-07-31T11:53:00;97528.28;;;27.67;54.44
13661;BME280;6903;49.480;11.102;2023-07-31T11:55:28;97529.63;;;28.04;54.00
13661;BME280;6903;49.480;11.102;2023-07-31T11:57:57;97529.72;;;28.26;54.01
13661;BME280;6903;49.480;11.102;2023-07-31T12:00:23;97530.75;;;28.36;53.44
13661;BME280;6903;49.480;11.102;2023-07-31T12:02:50;97528.44;;;28.28;54.31
13661;BME280;6903;49.480;11.102;2023-07-31T12:05:16;97526.47;;;28.24;54.73
13661;BME280;6903;49.480;11.102;2023-07-31T12:07:52;97535.00;;;28.32;54.78
13661;BME280;6903;49.480;11.102;2023-07-31T12:10:31;97529.16;;;28.52;55.07
13661;BME280;6903;49.480;11.102;2023-07-31T12:13:04;97527.91;;;28.76;54.36
13661;BME280;6903;49.480;11.102;2023-07-31T12:15:37;97525.72;;;28.89;53.58
13661;BME280;6903;49.480;11.102;2023-07-31T12:18:14;97527.09;;;28.92;52.12
13661;BME280;6903;49.480;11.102;2023-07-31T12:20:53;97524.78;;;28.84;52.65
13661;BME280;6903;49.480;11.102;2023-07-31T12:23:20;97525.44;;;28.58;54.20
13661;BME280;6903;49.480;11.102;2023-07-31T12:26:09;97517.44;;;28.35;53.65
13661;BME280;6903;49.480;11.102;2023-07-31T12:28:36;97515.81;;;28.22;54.29
13661;BME280;6903;49.480;11.102;2023-07-31T12:31:04;97503.59;;;28.20;54.73
13661;BME280;6903;49.480;11.102;2023-07-31T12:33:34;97496.69;;;28.12;55.39
13661;BME280;6903;49.480;11.102;2023-07-31T12:36:09;97497.97;;;28.10;55.94
13661;BME280;6903;49.480;11.102;2023-07-31T12:38:35;97501.00;;;28.41;55.83
13661;BME280;6903;49.480;11.102;2023-07-31T12:41:00;97493.63;;;28.53;55.46
13661;BME280;6903;49.480;11.102;2023-07-31T12:43:26;97493.53;;;28.48;53.90
13661;BME280;6903;49.480;11.102;2023-07-31T12:45:51;97488.44;;;28.52;53.57
13661;BME280;6903;49.480;11.102;2023-07-31T12:48:16;97489.03;;;28.54;54.31
13661;BME280;6903;49.480;11.102;2023-07-31T12:50:42;97486.78;;;28.34;54.11
13661;BME280;6903;49.480;11.102;2023-07-31T12:53:07;97482.25;;;28.23;53.64
13661;BME280;6903;49.480;11.102;2023-07-31T12:55:33;97475.34;;;28.16;54.26
13661;BME280;6903;49.480;11.102;2023-07-31T12:58:00;97468.75;;;28.12;54.30
13661;BME280;6903;49.480;11.102;2023-07-31T13:00:25;97460.19;;;28.03;54.19
13661;BME280;6903;49.480;11.102;2023-07-31T13:02:51;97457.16;;;28.16;53.96
13661;BME280;6903;49.480;11.102;2023-07-31T13:05:16;97457.91;;;28.28;53.90
13661;BME280;6903;49.480;11.102;2023-07-31T13:07:42;97463.03;;;28.41;53.91